sensor_id;sensor_type;location;lat;lon;timestamp;P1;durP1;ratioP1;P2;durP2;ratioP2
47589;SDS011;33316;52.298;9.056;2023-06-22T00:00:18;4.45;;;3.50;;
47589;SDS011;33316;52.298;9.056;2023-06-22T00:02:46;4.57;;;3.78;;
47589;SDS011;33316;52.298;9.056;2023-06-22T00:05:13;4.65;;;3.75;;
47589;SDS011;33316;52.298;9.056;2023-06-22T00:07:39;5.13;;;3.72;;
47589;SDS011;33316;52.298;9.056;2023-06-22T00:10:06;5.25;;;3.63;;
47589;SDS011;33316;52.298;9.056;2023-06-22T00:12:33;5.80;;;4.07;;
47589;SDS011;33316;52.298;9.056;2023-06-22T00:15:01;5.38;;;3.70;;
47589;SDS011;33316;52.298;9.056;2023-06-22T00:17:29;4.00;;;3.13;;
47589;SDS011;33316;52.298;9.056;2023-06-22T00:19:56;6.72;;;3.05;;
47589;SDS011;33316;52.298;9.056;2023-06-22T00:22:23;4.47;;;3.03;;
47589;SDS011;33316;52.298;9.056;2023-06-22T00:24:53;6.45;;;3.47;;
47589;SDS011;33316;52.298;9.056;2023-06-22T00:27:20;7.65;;;4.45;;
47589;SDS011;33316;52.298;9.056;2023-06-22T00:29:47;6.97;;;4.90;;
47589;SDS011;33316;52.298;9.056;2023-06-22T00:32:14;4.60;;;3.80;;
47589;SDS011;33316;52.298;9.056;2023-06-22T00:34:43;4.78;;;3.47;;
47589;SDS011;33316;52.298;9.056;2023-06-22T00:37:10;4.88;;;3.92;;
47589;SDS011;33316;52.298;9.056;2023-06-22T00:39:37;7.53;;;3.88;;
47589;SDS011;33316;52.298;9.056;2023-06-22T00:42:04;3.55;;;3.13;;
47589;SDS011;33316;52.298;9.056;2023-06-22T00:44:31;4.72;;;3.83;;
47589;SDS011;33316;52.298;9.056;2023-06-22T00:46:58;8.40;;;4.75;;
47589;SDS011;33316;52.298;9.056;2023-06-22T00:49:26;5.18;;;4.18;;
47589;SDS011;33316;52.298;9.056;2023-06-22T00:51:54;4.70;;;4.03;;
47589;SDS011;33316;52.298;9.056;2023-06-22T00:54:21;5.22;;;4.05;;
47589;SDS011;33316;52.298;9.056;2023-06-22T00:56:49;5.60;;;3.25;;
47589;SDS011;33316;52.298;9.056;2023-06-22T00:59:19;4.65;;;3.50;;
47589;SDS011;33316;52.298;9.056;2023-06-22T01:01:46;4.65;;;3.83;;
47589;SDS011;33316;52.298;9.056;2023-06-22T01:04:13;6.10;;;4.68;;
47589;SDS011;33316;52.298;9.056;2023-06-22T01:06:41;6.28;;;3.97;;
47589;SDS011;33316;52.298;9.056;2023-06-22T01:09:15;5.22;;;4.47;;
47589;SDS011;33316;52.298;9.056;2023-06-22T01:11:48;5.80;;;4.15;;
47589;SDS011;33316;52.298;9.056;2023-06-22T01:14:21;5.93;;;4.50;;
47589;SDS011;33316;52.298;9.056;2023-06-22T01:16:50;6.07;;;4.85;;
47589;SDS011;33316;52.298;9.056;2023-06-22T01:19:34;6.60;;;4.03;;
47589;SDS011;33316;52.298;9.056;2023-06-22T01:22:06;6.55;;;3.80;;
47589;SDS011;33316;52.298;9.056;2023-06-22T01:24:48;4.13;;;3.53;;
47589;SDS011;33316;52.298;9.056;2023-06-22T01:27:31;4.55;;;3.58;;
47589;SDS011;33316;52.298;9.056;2023-06-22T01:30:03;9.15;;;4.20;;
47589;SDS011;33316;52.298;9.056;2023-06-22T01:32:33;5.82;;;4.15;;
47589;SDS011;33316;52.298;9.056;2023-06-22T01:35:01;4.75;;;4.05;;
47589;SDS011;33316;52.298;9.056;2023-06-22T01:37:29;7.22;;;3.72;;
47589;SDS011;33316;52.298;9.056;2023-06-22T01:39:58;5.40;;;3.72;;
47589;SDS011;33316;52.298;9.056;2023-06-22T01:42:26;6.93;;;4.60;;
47589;SDS011;33316;52.298;9.056;2023-06-22T01:44:54;7.50;;;4.70;;
47589;SDS011;33316;52.298;9.056;2023-06-22T01:47:23;8.50;;;4.38;;
47589;SDS011;33316;52.298;9.056;2023-06-22T01:49:51;5.72;;;4.18;;
47589;SDS011;33316;52.298;9.056;2023-06-22T01:52:18;4.15;;;3.42;;
47589;SDS011;33316;52.298;9.056;2023-06-22T01:54:46;7.68;;;4.50;;
47589;SDS011;33316;52.298;9.056;2023-06-22T01:57:13;7.43;;;4.30;;
47589;SDS011;33316;52.298;9.056;2023-06-22T01:59:42;6.75;;;3.78;;
47589;SDS011;33316;52.298;9.056;2023-06-22T02:02:16;7.55;;;4.13;;
47589;SDS011;33316;52.298;9.056;2023-06-22T02:04:54;7.63;;;4.30;;
47589;SDS011;33316;52.298;9.056;2023-06-22T02:07:26;6.10;;;3.85;;
47589;SDS011;33316;52.298;9.056;2023-06-22T02:09:58;6.22;;;4.22;;
47589;SDS011;33316;52.298;9.056;2023-06-22T02:12:26;8.18;;;4.05;;
47589;SDS011;33316;52.298;9.056;2023-06-22T02:14:54;9.27;;;4.72;;
47589;SDS011;33316;52.298;9.056;2023-06-22T02:17:21;9.75;;;4.95;;
47589;SDS011;33316;52.298;9.056;2023-06-22T02:19:49;7.18;;;3.95;;
47589;SDS011;33316;52.298;9.056;2023-06-22T02:22:17;5.82;;;4.22;;
47589;SDS011;33316;52.298;9.056;2023-06-22T02:24:44;6.15;;;4.00;;
47589;SDS011;33316;52.298;9.056;2023-06-22T02:27:10;9.82;;;4.50;;
47589;SDS011;33316;52.298;9.056;2023-06-22T02:29:37;7.20;;;4.00;;
47589;SDS011;33316;52.298;9.056;2023-06-22T02:32:04;5.38;;;4.53;;
47589;SDS011;33316;52.298;9.056;2023-06-22T02:34:31;6.70;;;4.80;;
47589;SDS011;33316;52.298;9.056;2023-06-22T02:36:58;8.52;;;5.38;;
47589;SDS011;33316;52.298;9.056;2023-06-22T02:39:27;6.72;;;4.75;;
47589;SDS011;33316;52.298;9.056;2023-06-22T02:41:54;7.15;;;4.65;;
47589;SDS011;33316;52.298;9.056;2023-06-22T02:44:21;5.28;;;4.40;;
47589;SDS011;33316;52.298;9.056;2023-06-22T02:46:48;5.25;;;4.18;;
47589;SDS011;33316;52.298;9.056;2023-06-22T02:49:14;4.88;;;4.38;;
47589;SDS011;33316;52.298;9.056;2023-06-22T02:51:42;7.25;;;4.93;;
47589;SDS011;33316;52.298;9.056;2023-06-22T02:54:11;6.80;;;5.10;;
47589;SDS011;33316;52.298;9.056;2023-06-22T02:56:39;5.65;;;4.78;;
47589;SDS011;33316;52.298;9.056;2023-06-22T03:01:36;6.28;;;4.10;;
47589;SDS011;33316;52.298;9.056;2023-06-22T03:04:04;5.55;;;4.82;;
47589;SDS011;33316;52.298;9.056;2023-06-22T03:06:31;4.72;;;4.30;;
47589;SDS011;33316;52.298;9.056;2023-06-22T03:08:59;6.47;;;5.40;;
47589;SDS011;33316;52.298;9.056;2023-06-22T03:11:26;6.57;;;5.63;;
47589;SDS011;33316;52.298;9.056;2023-06-22T03:13:54;6.40;;;5.57;;
47589;SDS011;33316;52.298;9.056;2023-06-22T03:16:21;9.38;;;5.38;;
47589;SDS011;33316;52.298;9.056;2023-06-22T03:18:48;7.60;;;4.80;;
47589;SDS011;33316;52.298;9.056;2023-06-22T03:21:14;5.85;;;4.38;;
47589;SDS011;33316;52.298;9.056;2023-06-22T03:23:41;5.55;;;4.40;;
47589;SDS011;33316;52.298;9.056;2023-06-22T03:26:08;7.05;;;4.60;;
47589;SDS011;33316;52.298;9.056;2023-06-22T03:28:35;6.57;;;4.85;;
47589;SDS011;33316;52.298;9.056;2023-06-22T03:31:04;5.95;;;4.80;;
47589;SDS011;33316;52.298;9.056;2023-06-22T03:33:31;5.93;;;4.78;;
47589;SDS011;33316;52.298;9.056;2023-06-22T03:35:58;8.23;;;4.70;;
47589;SDS011;33316;52.298;9.056;2023-06-22T03:38:24;5.72;;;4.72;;
47589;SDS011;33316;52.298;9.056;2023-06-22T03:40:51;6.95;;;4.88;;
47589;SDS011;33316;52.298;9.056;2023-06-22T03:43:18;5.22;;;4.43;;
47589;SDS011;33316;52.298;9.056;2023-06-22T03:45:44;8.48;;;5.60;;
47589;SDS011;33316;52.298;9.056;2023-06-22T03:48:12;7.57;;;4.90;;
47589;SDS011;33316;52.298;9.056;2023-06-22T03:50:39;7.07;;;5.88;;
47589;SDS011;33316;52.298;9.056;2023-06-22T03:53:06;7.95;;;5.43;;
47589;SDS011;33316;52.298;9.056;2023-06-22T03:55:33;6.68;;;4.50;;
47589;SDS011;33316;52.298;9.056;2023-06-22T03:58:00;5.22;;;4.47;;
47589;SDS011;33316;52.298;9.056;2023-06-22T04:00:30;6.88;;;4.50;;
47589;SDS011;33316;52.298;9.056;2023-06-22T04:02:57;6.28;;;4.53;;
47589;SDS011;33316;52.298;9.056;2023-06-22T04:05:25;5.63;;;4.60;;
47589;SDS011;33316;52.298;9.056;2023-06-22T04:07:51;6.07;;;4.72;;
47589;SDS011;33316;52.298;9.056;2023-06-22T04:10:18;6.22;;;4.72;;
47589;SDS011;33316;52.298;9.056;2023-06-22T04:12:45;7.68;;;4.95;;
47589;SDS011;33316;52.298;9.056;2023-06-22T04:15:11;6.20;;;5.00;;
47589;SDS011;33316;52.298;9.056;2023-06-22T04:17:38;7.65;;;4.60;;
47589;SDS011;33316;52.298;9.056;2023-06-22T04:20:05;10.70;;;5.25;;
47589;SDS011;33316;52.298;9.056;2023-06-22T04:22:35;7.35;;;4.63;;
47589;SDS011;33316;52.298;9.056;2023-06-22T04:25:01;8.07;;;5.00;;
47589;SDS011;33316;52.298;9.056;2023-06-22T04:27:28;7.40;;;5.03;;
47589;SDS011;33316;52.298;9.056;2023-06-22T04:29:55;5.60;;;4.43;;
47589;SDS011;33316;52.298;9.056;2023-06-22T04:32:21;7.55;;;4.97;;
47589;SDS011;33316;52.298;9.056;2023-06-22T04:34:48;5.32;;;4.18;;
47589;SDS011;33316;52.298;9.056;2023-06-22T04:37:17;7.90;;;4.53;;
47589;SDS011;33316;52.298;9.056;2023-06-22T04:39:45;7.35;;;4.35;;
47589;SDS011;33316;52.298;9.056;2023-06-22T04:42:12;6.82;;;5.30;;
47589;SDS011;33316;52.298;9.056;2023-06-22T04:44:39;5.38;;;4.78;;
47589;SDS011;33316;52.298;9.056;2023-06-22T04:47:06;6.55;;;4.82;;
47589;SDS011;33316;52.298;9.056;2023-06-22T04:49:34;7.03;;;4.97;;
47589;SDS011;33316;52.298;9.056;2023-06-22T04:52:02;9.02;;;6.00;;
47589;SDS011;33316;52.298;9.056;2023-06-22T04:54:31;7.60;;;5.80;;
47589;SDS011;33316;52.298;9.056;2023-06-22T04:57:00;6.68;;;5.13;;
47589;SDS011;33316;52.298;9.056;2023-06-22T04:59:27;8.68;;;5.40;;
47589;SDS011;33316;52.298;9.056;2023-06-22T05:01:55;8.10;;;4.75;;
47589;SDS011;33316;52.298;9.056;2023-06-22T05:04:23;7.43;;;6.10;;
47589;SDS011;33316;52.298;9.056;2023-06-22T05:06:50;8.63;;;6.57;;
47589;SDS011;33316;52.298;9.056;2023-06-22T05:09:17;6.70;;;4.85;;
47589;SDS011;33316;52.298;9.056;2023-06-22T05:11:44;6.82;;;4.78;;
47589;SDS011;33316;52.298;9.056;2023-06-22T05:14:13;6.35;;;5.05;;
47589;SDS011;33316;52.298;9.056;2023-06-22T05:16:40;12.25;;;5.82;;
47589;SDS011;33316;52.298;9.056;2023-06-22T05:19:07;8.43;;;6.00;;
47589;SDS011;33316;52.298;9.056;2023-06-22T05:21:34;8.10;;;4.75;;
47589;SDS011;33316;52.298;9.056;2023-06-22T05:24:01;5.72;;;5.10;;
47589;SDS011;33316;52.298;9.056;2023-06-22T05:26:28;9.38;;;6.47;;
47589;SDS011;33316;52.298;9.056;2023-06-22T05:28:55;7.88;;;6.78;;
47589;SDS011;33316;52.298;9.056;2023-06-22T05:31:24;9.38;;;6.82;;
47589;SDS011;33316;52.298;9.056;2023-06-22T05:33:51;9.38;;;7.70;;
47589;SDS011;33316;52.298;9.056;2023-06-22T05:36:19;9.95;;;7.13;;
47589;SDS011;33316;52.298;9.056;2023-06-22T05:38:46;8.23;;;6.38;;
47589;SDS011;33316;52.298;9.056;2023-06-22T05:41:13;10.07;;;7.65;;
47589;SDS011;33316;52.298;9.056;2023-06-22T05:43:40;8.57;;;6.90;;
47589;SDS011;33316;52.298;9.056;2023-06-22T05:46:07;11.50;;;8.65;;
47589;SDS011;33316;52.298;9.056;2023-06-22T05:48:35;12.00;;;9.18;;
47589;SDS011;33316;52.298;9.056;2023-06-22T05:51:01;11.60;;;8.60;;
47589;SDS011;33316;52.298;9.056;2023-06-22T05:53:28;9.30;;;6.82;;
47589;SDS011;33316;52.298;9.056;2023-06-22T05:55:55;11.00;;;9.13;;
47589;SDS011;33316;52.298;9.056;2023-06-22T05:58:21;12.20;;;8.73;;
47589;SDS011;33316;52.298;9.056;2023-06-22T06:00:48;9.43;;;8.00;;
47589;SDS011;33316;52.298;9.056;2023-06-22T06:03:15;8.43;;;6.97;;
47589;SDS011;33316;52.298;9.056;2023-06-22T06:05:44;6.65;;;5.78;;
47589;SDS011;33316;52.298;9.056;2023-06-22T06:08:11;10.88;;;6.88;;
47589;SDS011;33316;52.298;9.056;2023-06-22T06:10:38;7.72;;;6.47;;
47589;SDS011;33316;52.298;9.056;2023-06-22T06:13:05;8.07;;;7.07;;
47589;SDS011;33316;52.298;9.056;2023-06-22T06:15:31;9.52;;;6.38;;
47589;SDS011;33316;52.298;9.056;2023-06-22T06:17:58;8.60;;;7.70;;
47589;SDS011;33316;52.298;9.056;2023-06-22T06:20:25;8.98;;;7.97;;
47589;SDS011;33316;52.298;9.056;2023-06-22T06:22:55;12.18;;;9.77;;
47589;SDS011;33316;52.298;9.056;2023-06-22T06:25:22;10.70;;;9.30;;
47589;SDS011;33316;52.298;9.056;2023-06-22T06:27:49;12.00;;;9.00;;
47589;SDS011;33316;52.298;9.056;2023-06-22T06:30:19;8.18;;;7.07;;
47589;SDS011;33316;52.298;9.056;2023-06-22T06:32:46;13.65;;;8.45;;
47589;SDS011;33316;52.298;9.056;2023-06-22T06:35:14;8.68;;;7.60;;
47589;SDS011;33316;52.298;9.056;2023-06-22T06:37:41;11.55;;;7.97;;
47589;SDS011;33316;52.298;9.056;2023-06-22T06:40:11;9.80;;;8.65;;
47589;SDS011;33316;52.298;9.056;2023-06-22T06:42:40;8.15;;;6.78;;
47589;SDS011;33316;52.298;9.056;2023-06-22T06:45:09;11.02;;;8.75;;
47589;SDS011;33316;52.298;9.056;2023-06-22T06:47:36;10.90;;;7.80;;
47589;SDS011;33316;52.298;9.056;2023-06-22T06:50:03;11.07;;;9.25;;
47589;SDS011;33316;52.298;9.056;2023-06-22T06:52:31;12.77;;;9.85;;
47589;SDS011;33316;52.298;9.056;2023-06-22T06:54:58;10.20;;;8.88;;
47589;SDS011;33316;52.298;9.056;2023-06-22T06:57:26;10.23;;;7.82;;
47589;SDS011;33316;52.298;9.056;2023-06-22T06:59:53;6.90;;;6.20;;
47589;SDS011;33316;52.298;9.056;2023-06-22T07:02:21;9.52;;;7.75;;
47589;SDS011;33316;52.298;9.056;2023-06-22T07:04:47;7.72;;;6.20;;
47589;SDS011;33316;52.298;9.056;2023-06-22T07:07:14;9.30;;;8.00;;
47589;SDS011;33316;52.298;9.056;2023-06-22T07:09:41;6.97;;;6.03;;
47589;SDS011;33316;52.298;9.056;2023-06-22T07:12:08;7.82;;;6.60;;
47589;SDS011;33316;52.298;9.056;2023-06-22T07:14:36;9.80;;;8.52;;
47589;SDS011;33316;52.298;9.056;2023-06-22T07:17:03;10.27;;;9.15;;
47589;SDS011;33316;52.298;9.056;2023-06-22T07:19:30;11.32;;;7.88;;
47589;SDS011;33316;52.298;9.056;2023-06-22T07:21:56;10.15;;;8.07;;
47589;SDS011;33316;52.298;9.056;2023-06-22T07:24:25;11.95;;;6.93;;
47589;SDS011;33316;52.298;9.056;2023-06-22T07:26:52;9.40;;;6.53;;
47589;SDS011;33316;52.298;9.056;2023-06-22T07:29:19;8.65;;;7.75;;
47589;SDS011;33316;52.298;9.056;2023-06-22T07:31:48;8.80;;;7.07;;
47589;SDS011;33316;52.298;9.056;2023-06-22T07:34:16;10.90;;;7.30;;
47589;SDS011;33316;52.298;9.056;2023-06-22T07:36:43;6.63;;;5.72;;
47589;SDS011;33316;52.298;9.056;2023-06-22T07:39:11;9.23;;;7.93;;
47589;SDS011;33316;52.298;9.056;2023-06-22T07:41:38;8.45;;;6.32;;
47589;SDS011;33316;52.298;9.056;2023-06-22T07:44:05;11.00;;;7.82;;
47589;SDS011;33316;52.298;9.056;2023-06-22T07:46:32;11.98;;;8.15;;
47589;SDS011;33316;52.298;9.056;2023-06-22T07:49:00;7.15;;;6.43;;
47589;SDS011;33316;52.298;9.056;2023-06-22T07:51:28;8.10;;;7.18;;
47589;SDS011;33316;52.298;9.056;2023-06-22T07:53:54;7.35;;;6.22;;
47589;SDS011;33316;52.298;9.056;2023-06-22T07:56:21;12.70;;;8.70;;
47589;SDS011;33316;52.298;9.056;2023-06-22T07:58:48;8.30;;;7.20;;
47589;SDS011;33316;52.298;9.056;2023-06-22T08:01:15;7.60;;;6.72;;
47589;SDS011;33316;52.298;9.056;2023-06-22T08:03:44;7.70;;;6.45;;
47589;SDS011;33316;52.298;9.056;2023-06-22T08:06:12;7.53;;;5.88;;
47589;SDS011;33316;52.298;9.056;2023-06-22T08:08:39;7.32;;;6.20;;
47589;SDS011;33316;52.298;9.056;2023-06-22T08:11:07;8.45;;;6.40;;
47589;SDS011;33316;52.298;9.056;2023-06-22T08:13:38;8.00;;;7.05;;
47589;SDS011;33316;52.298;9.056;2023-06-22T08:16:05;11.82;;;9.55;;
47589;SDS011;33316;52.298;9.056;2023-06-22T08:18:32;8.93;;;7.93;;
47589;SDS011;33316;52.298;9.056;2023-06-22T08:20:59;9.13;;;8.13;;
47589;SDS011;33316;52.298;9.056;2023-06-22T08:23:27;9.40;;;7.32;;
47589;SDS011;33316;52.298;9.056;2023-06-22T08:25:54;9.88;;;8.30;;
47589;SDS011;33316;52.298;9.056;2023-06-22T08:28:20;10.18;;;7.68;;
47589;SDS011;33316;52.298;9.056;2023-06-22T08:30:47;7.55;;;6.75;;
47589;SDS011;33316;52.298;9.056;2023-06-22T08:33:14;10.30;;;8.18;;
47589;SDS011;33316;52.298;9.056;2023-06-22T08:35:41;8.48;;;6.90;;
47589;SDS011;33316;52.298;9.056;2023-06-22T08:38:08;9.05;;;7.57;;
47589;SDS011;33316;52.298;9.056;2023-06-22T08:40:36;8.55;;;7.55;;
47589;SDS011;33316;52.298;9.056;2023-06-22T08:43:02;7.40;;;6.43;;
47589;SDS011;33316;52.298;9.056;2023-06-22T08:45:29;10.57;;;8.30;;
47589;SDS011;33316;52.298;9.056;2023-06-22T08:47:56;10.00;;;8.95;;
47589;SDS011;33316;52.298;9.056;2023-06-22T08:50:23;13.93;;;9.63;;
47589;SDS011;33316;52.298;9.056;2023-06-22T08:52:50;10.13;;;7.68;;
47589;SDS011;33316;52.298;9.056;2023-06-22T08:55:16;8.73;;;7.70;;
47589;SDS011;33316;52.298;9.056;2023-06-22T08:57:44;12.15;;;8.32;;
47589;SDS011;33316;52.298;9.056;2023-06-22T09:00:11;11.30;;;9.02;;
47589;SDS011;33316;52.298;9.056;2023-06-22T09:02:42;9.93;;;8.55;;
47589;SDS011;33316;52.298;9.056;2023-06-22T09:05:09;10.98;;;9.75;;
47589;SDS011;33316;52.298;9.056;2023-06-22T09:07:36;11.60;;;10.20;;
47589;SDS011;33316;52.298;9.056;2023-06-22T09:10:03;11.77;;;10.48;;
47589;SDS011;33316;52.298;9.056;2023-06-22T09:12:30;12.45;;;10.10;;
47589;SDS011;33316;52.298;9.056;2023-06-22T09:14:59;12.40;;;9.45;;
47589;SDS011;33316;52.298;9.056;2023-06-22T09:17:26;8.85;;;7.93;;
47589;SDS011;33316;52.298;9.056;2023-06-22T09:19:53;7.57;;;6.57;;
47589;SDS011;33316;52.298;9.056;2023-06-22T09:22:20;10.23;;;8.27;;
47589;SDS011;33316;52.298;9.056;2023-06-22T09:24:47;11.45;;;8.43;;
47589;SDS011;33316;52.298;9.056;2023-06-22T09:27:14;11.50;;;9.65;;
47589;SDS011;33316;52.298;9.056;2023-06-22T09:29:40;10.48;;;7.38;;
47589;SDS011;33316;52.298;9.056;2023-06-22T09:32:08;7.18;;;6.32;;
47589;SDS011;33316;52.298;9.056;2023-06-22T09:34:35;13.88;;;10.65;;
47589;SDS011;33316;52.298;9.056;2023-06-22T09:37:02;10.85;;;8.63;;
47589;SDS011;33316;52.298;9.056;2023-06-22T09:39:28;12.00;;;10.50;;
47589;SDS011;33316;52.298;9.056;2023-06-22T09:41:57;11.75;;;9.27;;
47589;SDS011;33316;52.298;9.056;2023-06-22T09:44:24;10.50;;;8.75;;
47589;SDS011;33316;52.298;9.056;2023-06-22T09:46:51;11.63;;;7.30;;
47589;SDS011;33316;52.298;9.056;2023-06-22T09:49:19;9.73;;;7.43;;
47589;SDS011;33316;52.298;9.056;2023-06-22T09:51:46;10.95;;;8.13;;
47589;SDS011;33316;52.298;9.056;2023-06-22T09:54:14;9.57;;;7.20;;
47589;SDS011;33316;52.298;9.056;2023-06-22T09:56:41;9.93;;;7.63;;
47589;SDS011;33316;52.298;9.056;2023-06-22T09:59:08;9.50;;;7.10;;
47589;SDS011;33316;52.298;9.056;2023-06-22T10:01:34;8.63;;;7.28;;
47589;SDS011;33316;52.298;9.056;2023-06-22T10:04:01;10.88;;;7.68;;
47589;SDS011;33316;52.298;9.056;2023-06-22T10:06:29;8.07;;;6.80;;
47589;SDS011;33316;52.298;9.056;2023-06-22T10:08:56;10.10;;;7.68;;
47589;SDS011;33316;52.298;9.056;2023-06-22T10:11:23;10.82;;;7.78;;
47589;SDS011;33316;52.298;9.056;2023-06-22T10:13:54;8.43;;;7.43;;
47589;SDS011;33316;52.298;9.056;2023-06-22T10:16:20;9.60;;;8.10;;
47589;SDS011;33316;52.298;9.056;2023-06-22T10:18:47;10.45;;;7.55;;
47589;SDS011;33316;52.298;9.056;2023-06-22T10:21:14;10.48;;;8.52;;
47589;SDS011;33316;52.298;9.056;2023-06-22T10:23:42;9.43;;;8.05;;
47589;SDS011;33316;52.298;9.056;2023-06-22T10:26:09;14.50;;;10.07;;
47589;SDS011;33316;52.298;9.056;2023-06-22T10:28:35;11.45;;;8.95;;
47589;SDS011;33316;52.298;9.056;2023-06-22T10:31:02;11.25;;;8.27;;
47589;SDS011;33316;52.298;9.056;2023-06-22T10:33:29;10.45;;;8.20;;
47589;SDS011;33316;52.298;9.056;2023-06-22T10:35:55;9.57;;;8.13;;
47589;SDS011;33316;52.298;9.056;2023-06-22T10:38:22;10.55;;;9.15;;
47589;SDS011;33316;52.298;9.056;2023-06-22T10:40:50;9.95;;;7.88;;
47589;SDS011;33316;52.298;9.056;2023-06-22T10:43:17;9.48;;;7.05;;
47589;SDS011;33316;52.298;9.056;2023-06-22T10:45:43;9.88;;;7.65;;
47589;SDS011;33316;52.298;9.056;2023-06-22T10:48:10;12.40;;;9.25;;
47589;SDS011;33316;52.298;9.056;2023-06-22T10:50:37;10.80;;;9.43;;
47589;SDS011;33316;52.298;9.056;2023-06-22T10:53:04;9.10;;;7.80;;
47589;SDS011;33316;52.298;9.056;2023-06-22T10:55:30;10.27;;;8.23;;
47589;SDS011;33316;52.298;9.056;2023-06-22T10:57:58;12.10;;;8.35;;
47589;SDS011;33316;52.298;9.056;2023-06-22T11:00:26;9.68;;;7.45;;
47589;SDS011;33316;52.298;9.056;2023-06-22T11:02:52;8.43;;;6.65;;
47589;SDS011;33316;52.298;9.056;2023-06-22T11:05:19;7.65;;;6.20;;
47589;SDS011;33316;52.298;9.056;2023-06-22T11:07:46;9.32;;;6.90;;
47589;SDS011;33316;52.298;9.056;2023-06-22T11:10:14;8.95;;;6.60;;
47589;SDS011;33316;52.298;9.056;2023-06-22T11:12:41;10.77;;;7.72;;
47589;SDS011;33316;52.298;9.056;2023-06-22T11:15:09;8.63;;;7.47;;
47589;SDS011;33316;52.298;9.056;2023-06-22T11:17:36;8.70;;;6.47;;
47589;SDS011;33316;52.298;9.056;2023-06-22T11:20:03;7.18;;;6.45;;
47589;SDS011;33316;52.298;9.056;2023-06-22T11:22:35;9.43;;;6.72;;
47589;SDS011;33316;52.298;9.056;2023-06-22T11:25:02;8.23;;;6.20;;
47589;SDS011;33316;52.298;9.056;2023-06-22T11:27:29;7.00;;;6.30;;
47589;SDS011;33316;52.298;9.056;2023-06-22T11:29:56;7.15;;;6.03;;
47589;SDS011;33316;52.298;9.056;2023-06-22T11:32:24;7.57;;;6.75;;
47589;SDS011;33316;52.298;9.056;2023-06-22T11:34:51;7.82;;;6.38;;
47589;SDS011;33316;52.298;9.056;2023-06-22T11:37:17;9.27;;;8.00;;
47589;SDS011;33316;52.298;9.056;2023-06-22T11:39:44;7.28;;;5.93;;
47589;SDS011;33316;52.298;9.056;2023-06-22T11:42:11;6.90;;;6.05;;
47589;SDS011;33316;52.298;9.056;2023-06-22T11:44:37;9.35;;;6.85;;
47589;SDS011;33316;52.298;9.056;2023-06-22T11:47:04;7.25;;;6.25;;
47589;SDS011;33316;52.298;9.056;2023-06-22T11:49:33;9.32;;;6.70;;
47589;SDS011;33316;52.298;9.056;2023-06-22T11:51:59;8.02;;;6.10;;
47589;SDS011;33316;52.298;9.056;2023-06-22T11:54:26;8.38;;;6.32;;
47589;SDS011;33316;52.298;9.056;2023-06-22T11:56:53;8.98;;;7.60;;
47589;SDS011;33316;52.298;9.056;2023-06-22T11:59:19;7.13;;;6.35;;
47589;SDS011;33316;52.298;9.056;2023-06-22T12:01:47;7.82;;;6.13;;
47589;SDS011;33316;52.298;9.056;2023-06-22T12:04:15;9.45;;;6.55;;
47589;SDS011;33316;52.298;9.056;2023-06-22T12:06:43;10.30;;;6.80;;
47589;SDS011;33316;52.298;9.056;2023-06-22T12:09:10;8.52;;;5.90;;
47589;SDS011;33316;52.298;9.056;2023-06-22T12:11:38;7.82;;;6.18;;
47589;SDS011;33316;52.298;9.056;2023-06-22T12:14:05;7.30;;;6.43;;
47589;SDS011;33316;52.298;9.056;2023-06-22T12:16:32;11.23;;;6.07;;
47589;SDS011;33316;52.298;9.056;2023-06-22T12:18:58;7.95;;;6.82;;
47589;SDS011;33316;52.298;9.056;2023-06-22T12:21:25;9.68;;;7.07;;
47589;SDS011;33316;52.298;9.056;2023-06-22T12:23:53;7.40;;;6.07;;
47589;SDS011;33316;52.298;9.056;2023-06-22T12:26:20;14.38;;;6.75;;
47589;SDS011;33316;52.298;9.056;2023-06-22T12:28:47;6.85;;;5.53;;
47589;SDS011;33316;52.298;9.056;2023-06-22T12:31:14;8.23;;;6.35;;
47589;SDS011;33316;52.298;9.056;2023-06-22T12:33:41;7.03;;;5.43;;
47589;SDS011;33316;52.298;9.056;2023-06-22T12:36:07;8.95;;;6.28;;
47589;SDS011;33316;52.298;9.056;2023-06-22T12:38:34;7.35;;;6.15;;
47589;SDS011;33316;52.298;9.056;2023-06-22T12:41:02;6.75;;;5.78;;
47589;SDS011;33316;52.298;9.056;2023-06-22T12:43:29;6.90;;;5.35;;
47589;SDS011;33316;52.298;9.056;2023-06-22T12:45:56;7.25;;;5.50;;
47589;SDS011;33316;52.298;9.056;2023-06-22T12:48:22;9.70;;;6.78;;
47589;SDS011;33316;52.298;9.056;2023-06-22T12:50:50;7.80;;;6.03;;
47589;SDS011;33316;52.298;9.056;2023-06-22T12:53:16;6.95;;;5.55;;
47589;SDS011;33316;52.298;9.056;2023-06-22T12:55:43;7.57;;;6.75;;
47589;SDS011;33316;52.298;9.056;2023-06-22T12:58:11;8.32;;;6.90;;
47589;SDS011;33316;52.298;9.056;2023-06-22T13:00:38;8.07;;;7.13;;
47589;SDS011;33316;52.298;9.056;2023-06-22T13:03:05;9.07;;;6.53;;
47589;SDS011;33316;52.298;9.056;2023-06-22T13:05:32;8.93;;;7.10;;
47589;SDS011;33316;52.298;9.056;2023-06-22T13:07:59;8.48;;;7.18;;
47589;SDS011;33316;52.298;9.056;2023-06-22T13:10:26;7.70;;;5.55;;
47589;SDS011;33316;52.298;9.056;2023-06-22T13:12:53;8.15;;;6.43;;
47589;SDS011;33316;52.298;9.056;2023-06-22T13:15:26;7.05;;;5.57;;
47589;SDS011;33316;52.298;9.056;2023-06-22T13:17:53;7.00;;;5.25;;
47589;SDS011;33316;52.298;9.056;2023-06-22T13:20:20;7.50;;;5.72;;
47589;SDS011;33316;52.298;9.056;2023-06-22T13:22:47;6.95;;;6.22;;
47589;SDS011;33316;52.298;9.056;2023-06-22T13:25:13;8.85;;;7.18;;
47589;SDS011;33316;52.298;9.056;2023-06-22T13:27:44;8.55;;;7.35;;
47589;SDS011;33316;52.298;9.056;2023-06-22T13:30:10;9.18;;;6.65;;
47589;SDS011;33316;52.298;9.056;2023-06-22T13:32:39;9.32;;;7.47;;
47589;SDS011;33316;52.298;9.056;2023-06-22T13:35:07;9.75;;;7.00;;
47589;SDS011;33316;52.298;9.056;2023-06-22T13:37:34;9.70;;;7.60;;
47589;SDS011;33316;52.298;9.056;2023-06-22T13:40:00;11.68;;;8.45;;
47589;SDS011;33316;52.298;9.056;2023-06-22T13:42:30;9.75;;;8.30;;
47589;SDS011;33316;52.298;9.056;2023-06-22T13:44:56;9.77;;;8.02;;
47589;SDS011;33316;52.298;9.056;2023-06-22T13:47:23;9.18;;;8.02;;
47589;SDS011;33316;52.298;9.056;2023-06-22T13:49:51;9.32;;;8.30;;
47589;SDS011;33316;52.298;9.056;2023-06-22T13:52:18;9.98;;;8.50;;
47589;SDS011;33316;52.298;9.056;2023-06-22T13:54:44;9.43;;;8.18;;
47589;SDS011;33316;52.298;9.056;2023-06-22T13:57:11;9.90;;;8.48;;
47589;SDS011;33316;52.298;9.056;2023-06-22T13:59:38;11.05;;;9.23;;
47589;SDS011;33316;52.298;9.056;2023-06-22T14:02:05;11.68;;;10.32;;
47589;SDS011;33316;52.298;9.056;2023-06-22T14:04:32;10.68;;;9.43;;
47589;SDS011;33316;52.298;9.056;2023-06-22T14:07:00;8.88;;;7.38;;
47589;SDS011;33316;52.298;9.056;2023-06-22T14:09:27;11.15;;;7.95;;
47589;SDS011;33316;52.298;9.056;2023-06-22T14:11:54;7.55;;;6.72;;
47589;SDS011;33316;52.298;9.056;2023-06-22T14:14:21;7.88;;;7.07;;
47589;SDS011;33316;52.298;9.056;2023-06-22T14:16:47;7.88;;;7.05;;
47589;SDS011;33316;52.298;9.056;2023-06-22T14:19:14;7.65;;;6.85;;
47589;SDS011;33316;52.298;9.056;2023-06-22T14:21:42;8.25;;;7.03;;
47589;SDS011;33316;52.298;9.056;2023-06-22T14:24:10;9.30;;;6.72;;
47589;SDS011;33316;52.298;9.056;2023-06-22T14:26:37;9.38;;;6.85;;
47589;SDS011;33316;52.298;9.056;2023-06-22T14:29:04;15.45;;;11.93;;
47589;SDS011;33316;52.298;9.056;2023-06-22T14:31:30;11.60;;;8.90;;
47589;SDS011;33316;52.298;9.056;2023-06-22T14:33:57;11.77;;;7.38;;
47589;SDS011;33316;52.298;9.056;2023-06-22T14:36:24;8.23;;;7.25;;
47589;SDS011;33316;52.298;9.056;2023-06-22T14:38:50;10.00;;;8.00;;
47589;SDS011;33316;52.298;9.056;2023-06-22T14:41:19;9.52;;;7.03;;
47589;SDS011;33316;52.298;9.056;2023-06-22T14:43:45;9.25;;;6.90;;
47589;SDS011;33316;52.298;9.056;2023-06-22T14:46:12;7.72;;;6.22;;
47589;SDS011;33316;52.298;9.056;2023-06-22T14:48:40;8.38;;;5.70;;